createdAt,value
2023-02-23T00:00:20.968Z,20.20
2023-02-23T00:00:33.909Z,18.83
2023-02-23T00:00:47.395Z,17.58
2023-02-23T00:01:00.316Z,17.23
2023-02-23T00:01:20.445Z,18.87
2023-02-23T00:01:33.286Z,18.95
2023-02-23T00:01:46.093Z,19.62
2023-02-23T00:02:06.337Z,19.00
2023-02-23T00:02:19.193Z,19.05
2023-02-23T00:02:32.080Z,19.42
2023-02-23T00:02:44.973Z,18.90
2023-02-23T00:02:59.135Z,17.15
2023-02-23T00:03:12.161Z,17.48
2023-02-23T00:03:25.004Z,17.35
2023-02-23T00:03:37.838Z,16.90
2023-02-23T00:03:50.920Z,19.67
2023-02-23T00:04:03.817Z,20.52
2023-02-23T00:04:18.742Z,20.23
2023-02-23T00:04:31.716Z,17.85
2023-02-23T00:04:44.581Z,18.15
2023-02-23T00:04:57.860Z,18.98
2023-02-23T00:05:10.668Z,18.85
2023-02-23T00:05:23.554Z,18.40
2023-02-23T00:05:36.725Z,18.98
2023-02-23T00:05:49.536Z,19.37
2023-02-23T00:06:03.548Z,18.85
2023-02-23T00:06:17.399Z,18.00
2023-02-23T00:06:30.794Z,17.33
2023-02-23T00:06:43.671Z,17.30
2023-02-23T00:06:56.558Z,17.55
2023-02-23T00:07:10.393Z,17.95
2023-02-23T00:07:23.212Z,18.37
2023-02-23T00:07:36.780Z,19.20
2023-02-23T00:07:49.585Z,19.67
2023-02-23T00:08:02.414Z,19.00
2023-02-23T00:08:15.259Z,17.15
2023-02-23T00:08:28.301Z,19.08
2023-02-23T00:08:41.358Z,19.02
2023-02-23T00:08:54.313Z,19.05
2023-02-23T00:09:12.086Z,18.48
2023-02-23T00:09:25.007Z,18.65
2023-02-23T00:09:37.937Z,19.48
2023-02-23T00:09:50.976Z,18.00
2023-02-23T00:10:03.939Z,18.70
2023-02-23T00:10:18.805Z,18.95
2023-02-23T00:10:31.683Z,18.75
2023-02-23T00:10:44.649Z,19.12
2023-02-23T00:11:00.341Z,19.70
2023-02-23T00:11:13.207Z,18.02
2023-02-23T00:11:27.145Z,17.05
2023-02-23T00:11:39.998Z,17.12
2023-02-23T00:11:57.255Z,17.92
2023-02-23T00:12:10.266Z,19.30
2023-02-23T00:12:24.076Z,18.75
2023-02-23T00:12:36.826Z,17.67
2023-02-23T00:12:49.618Z,17.73
2023-02-23T00:13:02.429Z,18.10
2023-02-23T00:13:15.205Z,17.58
2023-02-23T00:13:28.539Z,17.87
2023-02-23T00:13:41.941Z,19.00
2023-02-23T00:13:56.753Z,19.10
2023-02-23T00:14:09.530Z,17.62
2023-02-23T00:14:27.243Z,17.08
2023-02-23T00:14:40.219Z,18.08
2023-02-23T00:14:53.042Z,19.08
2023-02-23T00:15:07.601Z,18.50
2023-02-23T00:15:20.410Z,18.23
2023-02-23T00:15:33.246Z,17.27
2023-02-23T00:15:46.050Z,18.80
2023-02-23T00:15:58.831Z,19.02
2023-02-23T00:16:15.744Z,17.33
2023-02-23T00:16:28.604Z,17.95
2023-02-23T00:16:45.349Z,19.65
2023-02-23T00:16:59.955Z,17.30
2023-02-23T00:17:15.119Z,16.73
2023-02-23T00:17:30.320Z,19.30
2023-02-23T00:17:43.213Z,18.40
2023-02-23T00:17:56.819Z,17.75
2023-02-23T00:18:09.925Z,18.02
2023-02-23T00:18:22.973Z,17.23
2023-02-23T00:18:45.157Z,18.20
2023-02-23T00:19:00.454Z,17.77
2023-02-23T00:19:14.109Z,17.58
2023-02-23T00:19:27.016Z,17.98
2023-02-23T00:19:40.111Z,18.80
2023-02-23T00:19:53.131Z,19.25
2023-02-23T00:20:11.818Z,18.17
2023-02-23T00:20:26.219Z,17.87
2023-02-23T00:20:44.474Z,17.27
2023-02-23T00:20:57.717Z,18.33
2023-02-23T00:21:17.879Z,19.98
2023-02-23T00:21:38.017Z,18.58
2023-02-23T00:21:52.714Z,19.02
2023-02-23T00:22:06.578Z,18.12
2023-02-23T00:22:19.719Z,17.90
2023-02-23T00:22:32.713Z,19.60
2023-02-23T00:22:49.003Z,21.25
2023-02-23T00:23:02.081Z,20.20
2023-02-23T00:23:15.143Z,19.75
2023-02-23T00:23:27.967Z,18.80
2023-02-23T00:23:42.621Z,17.37
2023-02-23T00:23:57.380Z,17.80
2023-02-23T00:24:11.750Z,18.37
2023-02-23T00:24:26.988Z,17.40
2023-02-23T00:24:42.372Z,19.05
2023-02-23T00:24:57.544Z,20.42
2023-02-23T00:25:11.730Z,19.62
2023-02-23T00:25:25.164Z,18.75
2023-02-23T00:25:38.873Z,18.58
2023-02-23T00:25:51.668Z,17.45
2023-02-23T00:26:04.651Z,16.87
2023-02-23T00:26:20.803Z,18.27
2023-02-23T00:26:35.248Z,18.52
2023-02-23T00:26:48.473Z,18.23
2023-02-23T00:27:06.216Z,16.77
2023-02-23T00:27:21.127Z,17.95
2023-02-23T00:27:34.218Z,19.98
2023-02-23T00:27:47.058Z,20.05
2023-02-23T00:27:59.964Z,19.50
2023-02-23T00:28:12.747Z,18.20
2023-02-23T00:28:25.539Z,17.83
2023-02-23T00:28:38.370Z,18.40
2023-02-23T00:28:51.383Z,19.37
2023-02-23T00:29:10.854Z,18.23
2023-02-23T00:29:24.899Z,16.20
2023-02-23T00:29:40.476Z,16.58
2023-02-23T00:29:53.554Z,16.40
2023-02-23T00:30:07.330Z,15.63
2023-02-23T00:30:20.281Z,16.30
2023-02-23T00:30:35.525Z,17.55
2023-02-23T00:30:48.812Z,18.58
2023-02-23T00:31:04.525Z,18.98
2023-02-23T00:31:17.967Z,18.10
2023-02-23T00:31:31.037Z,17.05
2023-02-23T00:31:47.025Z,17.92
2023-02-23T00:31:59.931Z,19.45
2023-02-23T00:32:12.847Z,19.48
2023-02-23T00:32:25.901Z,18.10
2023-02-23T00:32:38.835Z,18.20
2023-02-23T00:32:52.582Z,18.08
2023-02-23T00:33:05.400Z,18.73
2023-02-23T00:33:18.215Z,18.67
2023-02-23T00:33:31.582Z,18.35
2023-02-23T00:33:44.451Z,20.17
2023-02-23T00:33:59.152Z,20.62
2023-02-23T00:34:12.496Z,19.70
2023-02-23T00:34:25.280Z,19.00
2023-02-23T00:34:38.182Z,17.52
2023-02-23T00:34:51.766Z,16.83
2023-02-23T00:35:05.377Z,18.50
2023-02-23T00:35:18.952Z,19.85
2023-02-23T00:35:33.347Z,18.25
2023-02-23T00:35:48.471Z,19.50
2023-02-23T00:36:27.866Z,20.42
2023-02-23T00:36:42.146Z,19.77
2023-02-23T00:36:55.486Z,20.37
2023-02-23T00:37:08.740Z,18.50
2023-02-23T00:37:23.044Z,17.05
2023-02-23T00:37:36.051Z,18.00
2023-02-23T00:37:49.028Z,18.42
2023-02-23T00:38:01.831Z,19.77
2023-02-23T00:38:14.686Z,18.73
2023-02-23T00:38:27.479Z,17.75
2023-02-23T00:38:41.378Z,18.05
2023-02-23T00:38:55.121Z,18.55
2023-02-23T00:39:25.214Z,17.08
2023-02-23T00:39:38.208Z,15.52
2023-02-23T00:39:52.097Z,16.17
2023-02-23T00:40:14.620Z,17.95
2023-02-23T00:40:27.506Z,18.50
2023-02-23T00:40:41.088Z,17.02
2023-02-23T00:40:53.899Z,16.10
2023-02-23T00:41:14.298Z,16.45
2023-02-23T00:41:43.427Z,16.85
2023-02-23T00:41:56.320Z,16.87
2023-02-23T00:42:10.501Z,17.50
2023-02-23T00:42:24.594Z,18.05
2023-02-23T00:42:37.413Z,18.33
2023-02-23T00:42:52.145Z,19.30
2023-02-23T00:43:05.041Z,20.10
2023-02-23T00:43:19.883Z,19.50
2023-02-23T00:43:39.555Z,20.27
2023-02-23T00:44:08.214Z,17.33
2023-02-23T00:44:21.863Z,16.50
2023-02-23T00:44:34.928Z,18.85
2023-02-23T00:44:48.995Z,18.40
2023-02-23T00:45:08.147Z,17.33
2023-02-23T00:45:20.973Z,16.10
2023-02-23T00:45:33.965Z,15.80
2023-02-23T00:45:46.821Z,16.58
2023-02-23T00:45:59.727Z,16.80
2023-02-23T00:46:12.671Z,16.17
2023-02-23T00:46:27.471Z,15.68
2023-02-23T00:46:41.907Z,15.60
2023-02-23T00:46:54.706Z,16.35
2023-02-23T00:47:07.548Z,17.52
2023-02-23T00:47:20.647Z,18.02
2023-02-23T00:47:33.489Z,17.92
2023-02-23T00:47:48.477Z,17.17
2023-02-23T00:48:05.550Z,16.60
2023-02-23T00:48:18.626Z,17.55
2023-02-23T00:48:34.741Z,17.83
2023-02-23T00:48:48.595Z,17.40
2023-02-23T00:49:01.946Z,17.52
2023-02-23T00:49:14.867Z,16.90
2023-02-23T00:49:27.746Z,16.77
2023-02-23T00:49:40.557Z,17.34
2023-02-23T00:49:53.530Z,18.12
2023-02-23T00:50:07.663Z,16.75
2023-02-23T00:50:20.628Z,15.55
2023-02-23T00:50:34.776Z,15.85
2023-02-23T00:50:50.701Z,16.87
2023-02-23T00:51:05.388Z,17.67
2023-02-23T00:51:18.823Z,16.05
2023-02-23T00:51:32.225Z,16.45
2023-02-23T00:51:45.054Z,15.90
2023-02-23T00:51:58.226Z,15.48
2023-02-23T00:52:12.157Z,16.20
2023-02-23T00:52:25.007Z,16.23
2023-02-23T00:52:38.883Z,16.95
2023-02-23T00:52:51.714Z,18.83
2023-02-23T00:53:04.949Z,18.65
2023-02-23T00:53:17.771Z,16.80
2023-02-23T00:53:30.691Z,17.80
2023-02-23T00:53:44.219Z,19.33
2023-02-23T00:53:57.753Z,18.85
2023-02-23T00:54:12.545Z,16.95
2023-02-23T00:54:25.397Z,17.27
2023-02-23T00:54:38.264Z,17.48
2023-02-23T00:54:51.476Z,16.02
2023-02-23T00:55:04.903Z,16.25
2023-02-23T00:55:17.724Z,17.08
2023-02-23T00:55:30.561Z,17.25
2023-02-23T00:55:43.359Z,16.30
2023-02-23T00:55:56.470Z,15.05
2023-02-23T00:56:10.378Z,15.77
2023-02-23T00:56:23.360Z,16.58
2023-02-23T00:56:36.170Z,16.92
2023-02-23T00:56:49.339Z,16.25
2023-02-23T00:57:02.155Z,16.52
2023-02-23T00:57:15.006Z,15.90
2023-02-23T00:57:27.810Z,16.40
2023-02-23T00:57:40.900Z,16.87
2023-02-23T00:57:53.697Z,17.12
2023-02-23T00:58:09.626Z,15.60
2023-02-23T00:58:23.754Z,14.95
2023-02-23T00:58:36.686Z,16.52
2023-02-23T00:58:49.696Z,17.08
2023-02-23T00:59:02.500Z,17.00
2023-02-23T00:59:15.296Z,17.92
2023-02-23T00:59:29.702Z,17.08
2023-02-23T00:59:42.521Z,15.95
2023-02-23T00:59:55.313Z,15.85
2023-02-23T01:00:18.818Z,15.82
2023-02-23T01:00:32.163Z,15.20
2023-02-23T01:00:44.975Z,15.43
2023-02-23T01:00:59.249Z,15.45
2023-02-23T01:01:12.920Z,15.82
2023-02-23T01:01:25.786Z,16.15
2023-02-23T01:01:39.069Z,16.12
2023-02-23T01:01:52.580Z,17.33
2023-02-23T01:02:05.452Z,19.95
2023-02-23T01:02:18.322Z,19.92
2023-02-23T01:02:31.197Z,18.92
2023-02-23T01:02:44.079Z,17.40
2023-02-23T01:02:56.878Z,17.27
2023-02-23T01:03:09.706Z,16.42
2023-02-23T01:03:22.550Z,16.65
2023-02-23T01:03:35.544Z,16.50
2023-02-23T01:03:48.319Z,17.55
2023-02-23T01:04:01.675Z,17.75
2023-02-23T01:04:14.522Z,16.83
2023-02-23T01:04:27.334Z,16.58
2023-02-23T01:04:53.389Z,17.33
2023-02-23T01:05:06.479Z,16.67
2023-02-23T01:05:20.419Z,16.80
2023-02-23T01:05:35.295Z,17.52
2023-02-23T01:05:50.126Z,17.48
2023-02-23T01:06:05.741Z,17.12
2023-02-23T01:06:18.594Z,16.73
2023-02-23T01:06:31.408Z,15.35
2023-02-23T01:06:46.280Z,15.07
2023-02-23T01:06:59.722Z,17.45
2023-02-23T01:07:13.077Z,19.27
2023-02-23T01:07:25.969Z,19.87
2023-02-23T01:07:38.995Z,18.75
2023-02-23T01:07:51.895Z,15.70
2023-02-23T01:08:09.351Z,16.52
2023-02-23T01:08:24.869Z,16.27
2023-02-23T01:08:39.501Z,16.95
2023-02-23T01:08:56.732Z,17.37
2023-02-23T01:09:11.561Z,16.90
2023-02-23T01:09:28.413Z,16.25
2023-02-23T01:09:41.162Z,17.48
2023-02-23T01:09:53.956Z,17.37
2023-02-23T01:10:19.104Z,17.05
2023-02-23T01:10:32.034Z,17.45
2023-02-23T01:10:52.068Z,17.67
2023-02-23T01:11:24.792Z,17.80
2023-02-23T01:11:37.579Z,15.63
2023-02-23T01:11:50.464Z,16.15
2023-02-23T01:12:07.317Z,15.70
2023-02-23T01:12:20.150Z,17.08
2023-02-23T01:12:32.947Z,18.80
2023-02-23T01:12:52.043Z,18.75
2023-02-23T01:13:05.967Z,18.75
2023-02-23T01:13:20.176Z,19.00
2023-02-23T01:13:34.028Z,18.58
2023-02-23T01:13:50.075Z,18.00
2023-02-23T01:14:03.085Z,18.65
2023-02-23T01:14:15.882Z,17.05
2023-02-23T01:14:29.402Z,16.65
2023-02-23T01:14:42.582Z,17.58
2023-02-23T01:14:55.432Z,17.55
2023-02-23T01:15:08.928Z,16.27
2023-02-23T01:15:21.803Z,16.05
2023-02-23T01:15:34.734Z,16.62
2023-02-23T01:15:48.525Z,16.50
2023-02-23T01:16:03.783Z,16.65
2023-02-23T01:16:17.741Z,16.37
2023-02-23T01:16:31.949Z,15.15
2023-02-23T01:16:44.766Z,17.77
2023-02-23T01:16:57.565Z,19.12
2023-02-23T01:17:10.375Z,18.50
2023-02-23T01:17:23.135Z,17.27
2023-02-23T01:17:35.945Z,16.52
2023-02-23T01:18:02.108Z,15.95
2023-02-23T01:18:16.694Z,16.65
2023-02-23T01:18:29.495Z,17.83
2023-02-23T01:18:42.598Z,17.60
2023-02-23T01:18:56.784Z,16.98
2023-02-23T01:19:09.971Z,16.50
2023-02-23T01:19:22.880Z,16.50
2023-02-23T01:19:35.695Z,15.88
2023-02-23T01:19:48.507Z,14.73
2023-02-23T01:20:01.321Z,16.12
2023-02-23T01:20:17.887Z,18.25
2023-02-23T01:20:30.701Z,17.05
2023-02-23T01:20:43.997Z,17.02
2023-02-23T01:20:56.808Z,17.37
2023-02-23T01:21:42.068Z,16.95
2023-02-23T01:21:55.010Z,17.40
2023-02-23T01:22:07.817Z,16.37
2023-02-23T01:22:20.610Z,15.50
2023-02-23T01:22:33.416Z,14.93
2023-02-23T01:22:47.606Z,15.48
2023-02-23T01:23:03.199Z,15.80
2023-02-23T01:23:16.045Z,18.73
2023-02-23T01:23:28.915Z,19.52
2023-02-23T01:23:41.766Z,15.88
2023-02-23T01:23:55.023Z,16.15
2023-02-23T01:24:08.022Z,18.15
2023-02-23T01:24:20.847Z,17.40
2023-02-23T01:24:33.646Z,16.75
2023-02-23T01:24:46.931Z,16.90
2023-02-23T01:24:59.731Z,16.40
2023-02-23T01:25:12.518Z,15.40
2023-02-23T01:25:28.543Z,15.30
2023-02-23T01:25:42.906Z,15.13
2023-02-23T01:25:55.706Z,15.65
2023-02-23T01:26:16.138Z,16.20
2023-02-23T01:26:30.811Z,14.60
2023-02-23T01:26:44.833Z,16.35
2023-02-23T01:26:57.726Z,16.52
2023-02-23T01:27:10.542Z,15.57
2023-02-23T01:27:24.016Z,15.45
2023-02-23T01:27:36.822Z,16.33
2023-02-23T01:27:49.642Z,17.65
2023-02-23T01:28:02.907Z,16.92
2023-02-23T01:28:15.762Z,16.20
2023-02-23T01:28:28.562Z,16.23
2023-02-23T01:28:41.363Z,15.15
2023-02-23T01:28:55.831Z,15.20
2023-02-23T01:29:13.643Z,16.10
2023-02-23T01:29:26.450Z,15.85
2023-02-23T01:29:39.235Z,16.10
2023-02-23T01:29:52.076Z,15.70
2023-02-23T01:30:05.522Z,16.08
2023-02-23T01:30:18.420Z,17.42
2023-02-23T01:30:31.475Z,17.77
2023-02-23T01:30:45.057Z,16.23
2023-02-23T01:30:57.999Z,15.68
2023-02-23T01:31:10.985Z,16.60
2023-02-23T01:31:24.369Z,16.55
2023-02-23T01:31:39.543Z,16.48
2023-02-23T01:31:52.711Z,16.83
2023-02-23T01:32:05.821Z,17.02
2023-02-23T01:32:18.759Z,16.20
2023-02-23T01:32:31.650Z,15.60
2023-02-23T01:32:44.559Z,15.18
2023-02-23T01:32:57.516Z,14.65
2023-02-23T01:33:10.419Z,14.30
2023-02-23T01:33:23.334Z,14.43
2023-02-23T01:33:36.179Z,15.40
2023-02-23T01:33:52.686Z,16.85
2023-02-23T01:34:06.162Z,17.02
2023-02-23T01:34:19.567Z,16.85
2023-02-23T01:34:32.790Z,17.02
2023-02-23T01:34:45.699Z,17.02
2023-02-23T01:34:58.508Z,16.30
2023-02-23T01:35:12.613Z,16.08
2023-02-23T01:35:25.455Z,16.20
2023-02-23T01:35:38.261Z,16.08
2023-02-23T01:35:58.739Z,16.45
2023-02-23T01:36:13.004Z,16.15
2023-02-23T01:36:26.428Z,14.93
2023-02-23T01:36:40.088Z,14.95
2023-02-23T01:36:52.889Z,17.62
2023-02-23T01:37:05.741Z,18.12
2023-02-23T01:37:18.572Z,18.75
2023-02-23T01:37:35.413Z,18.67
2023-02-23T01:37:49.523Z,16.73
2023-02-23T01:38:03.689Z,16.85
2023-02-23T01:38:16.538Z,16.20
2023-02-23T01:38:29.325Z,16.15
2023-02-23T01:38:42.156Z,16.65
2023-02-23T01:38:56.599Z,15.20
2023-02-23T01:39:14.202Z,14.43
2023-02-23T01:39:28.265Z,15.02
2023-02-23T01:39:41.109Z,16.50
2023-02-23T01:39:53.935Z,15.93
2023-02-23T01:40:18.818Z,14.65
2023-02-23T01:40:31.719Z,15.65
2023-02-23T01:40:44.549Z,14.02
2023-02-23T01:40:57.778Z,13.60
2023-02-23T01:41:10.786Z,14.63
2023-02-23T01:41:24.693Z,14.45
2023-02-23T01:41:37.657Z,14.50
2023-02-23T01:41:52.545Z,17.58
2023-02-23T01:42:10.124Z,18.10
2023-02-23T01:42:22.937Z,14.70
2023-02-23T01:42:38.686Z,15.43
2023-02-23T01:42:51.507Z,17.25
2023-02-23T01:43:18.050Z,15.70
2023-02-23T01:43:30.954Z,14.60
2023-02-23T01:43:59.292Z,15.95
2023-02-23T01:44:15.225Z,17.50
2023-02-23T01:44:31.205Z,17.95
2023-02-23T01:44:43.944Z,17.45
2023-02-23T01:45:29.219Z,16.25
2023-02-23T01:45:43.439Z,16.08
2023-02-23T01:45:58.153Z,16.87
2023-02-23T01:46:11.076Z,17.17
2023-02-23T01:46:24.003Z,15.98
2023-02-23T01:46:41.122Z,15.20
2023-02-23T01:46:54.116Z,14.65
2023-02-23T01:47:07.000Z,14.27
2023-02-23T01:47:20.620Z,13.57
2023-02-23T01:47:35.265Z,15.13
2023-02-23T01:47:48.211Z,17.20
2023-02-23T01:48:03.954Z,16.70
2023-02-23T01:48:18.545Z,16.10
2023-02-23T01:48:34.616Z,16.20
2023-02-23T01:48:48.660Z,16.02
2023-02-23T01:49:01.664Z,17.15
2023-02-23T01:49:20.348Z,16.55
2023-02-23T01:49:34.653Z,16.17
2023-02-23T01:49:47.542Z,15.57
2023-02-23T01:50:02.201Z,14.52
2023-02-23T01:50:16.471Z,15.18
2023-02-23T01:50:32.207Z,15.25
2023-02-23T01:51:03.146Z,15.15
2023-02-23T01:51:19.371Z,14.14
2023-02-23T01:51:34.597Z,15.45
2023-02-23T01:51:50.257Z,13.95
2023-02-23T01:52:03.952Z,13.55
2023-02-23T01:52:16.874Z,16.33
2023-02-23T01:52:29.832Z,16.60
2023-02-23T01:52:46.059Z,15.82
2023-02-23T01:52:59.494Z,15.48
2023-02-23T01:53:12.385Z,14.60
2023-02-23T01:53:26.925Z,14.35
2023-02-23T01:53:42.126Z,15.20
2023-02-23T01:54:09.942Z,15.40
2023-02-23T01:54:25.383Z,15.65
2023-02-23T01:54:40.510Z,16.23
2023-02-23T01:54:53.584Z,15.73
2023-02-23T01:55:06.846Z,16.20
2023-02-23T01:55:24.420Z,15.75
2023-02-23T01:55:38.088Z,15.52
2023-02-23T01:55:55.158Z,14.87
2023-02-23T01:56:11.559Z,15.38
2023-02-23T01:56:26.858Z,16.02
2023-02-23T01:56:43.993Z,16.23
2023-02-23T01:57:00.190Z,16.52
2023-02-23T01:57:13.106Z,16.35
2023-02-23T01:57:27.162Z,16.20
2023-02-23T01:57:40.341Z,15.73
2023-02-23T01:57:57.034Z,14.95
2023-02-23T01:58:15.648Z,14.68
2023-02-23T01:58:28.552Z,15.80
2023-02-23T01:58:43.769Z,15.20
2023-02-23T01:58:57.854Z,14.60
2023-02-23T01:59:12.379Z,16.37
2023-02-23T01:59:30.842Z,18.00
2023-02-23T01:59:45.286Z,16.73
2023-02-23T01:59:58.282Z,15.23
2023-02-23T02:00:15.188Z,15.27
2023-02-23T02:00:28.394Z,14.60
2023-02-23T02:00:47.452Z,15.23
2023-02-23T02:01:03.432Z,15.80
2023-02-23T02:01:16.570Z,15.98
2023-02-23T02:01:32.072Z,15.80
2023-02-23T02:01:45.633Z,15.10
2023-02-23T02:01:58.698Z,15.63
2023-02-23T02:02:13.435Z,15.95
2023-02-23T02:02:33.478Z,15.82
2023-02-23T02:02:48.842Z,14.35
2023-02-23T02:03:01.748Z,14.32
2023-02-23T02:03:26.923Z,15.25
2023-02-23T02:03:48.556Z,14.43
2023-02-23T02:04:07.209Z,14.60
2023-02-23T02:04:20.868Z,13.50
2023-02-23T02:04:44.513Z,14.60
2023-02-23T02:04:57.641Z,15.05
2023-02-23T02:05:14.222Z,15.77
2023-02-23T02:05:27.161Z,15.02
2023-02-23T02:05:40.208Z,15.18
2023-02-23T02:05:53.168Z,15.75
2023-02-23T02:06:09.895Z,15.68
2023-02-23T02:06:23.960Z,16.45
2023-02-23T02:06:53.977Z,15.43
2023-02-23T02:07:07.904Z,15.35
2023-02-23T02:07:26.200Z,15.88
2023-02-23T02:07:40.005Z,15.10
2023-02-23T02:07:59.102Z,14.98
2023-02-23T02:08:12.124Z,15.52
2023-02-23T02:08:25.169Z,15.93
2023-02-23T02:08:45.310Z,16.12
2023-02-23T02:09:00.293Z,15.48
2023-02-23T02:09:18.432Z,15.45
2023-02-23T02:09:37.892Z,15.23
2023-02-23T02:10:11.153Z,14.55
2023-02-23T02:10:40.339Z,15.00
2023-02-23T02:10:56.248Z,14.93
2023-02-23T02:11:26.120Z,13.93
2023-02-23T02:11:39.431Z,14.77
2023-02-23T02:11:54.379Z,15.80
2023-02-23T02:12:11.918Z,16.33
2023-02-23T02:12:26.194Z,15.40
2023-02-23T02:12:40.453Z,15.30
2023-02-23T02:12:55.615Z,16.50
2023-02-23T02:13:09.194Z,15.88
2023-02-23T02:13:24.888Z,14.43
2023-02-23T02:13:38.241Z,14.90
2023-02-23T02:13:52.411Z,16.05
2023-02-23T02:14:16.217Z,16.73
2023-02-23T02:14:30.906Z,13.75
2023-02-23T02:14:45.747Z,12.85
2023-02-23T02:14:59.798Z,14.13
2023-02-23T02:15:17.622Z,15.00
2023-02-23T02:15:31.974Z,14.20
2023-02-23T02:15:54.580Z,13.98
2023-02-23T02:16:33.056Z,15.80
2023-02-23T02:16:48.546Z,15.82
2023-02-23T02:17:16.017Z,15.50
2023-02-23T02:18:04.071Z,16.70
2023-02-23T02:18:38.334Z,15.73
2023-02-23T02:19:09.298Z,15.73
2023-02-23T02:19:53.482Z,14.15
2023-02-23T02:20:37.638Z,14.55
2023-02-23T02:20:53.542Z,14.45
2023-02-23T02:21:29.391Z,15.05
2023-02-23T02:22:00.789Z,14.55
2023-02-23T02:22:35.107Z,15.65
2023-02-23T02:23:21.891Z,15.40
2023-02-23T02:23:55.578Z,13.95
2023-02-23T02:24:23.107Z,14.82
2023-02-23T02:25:00.832Z,15.23
2023-02-23T02:25:36.542Z,14.75
2023-02-23T02:25:58.394Z,15.25
2023-02-23T02:26:26.364Z,15.05
2023-02-23T02:27:16.600Z,15.23
2023-02-23T02:28:22.430Z,14.82
2023-02-23T02:29:57.297Z,14.77
2023-02-23T02:30:25.526Z,13.38
2023-02-23T02:31:05.586Z,15.85
2023-02-23T02:31:30.486Z,14.65
2023-02-23T02:31:50.081Z,17.40
2023-02-23T02:32:14.993Z,15.38
2023-02-23T02:52:06.249Z,12.52
2023-02-23T02:52:41.414Z,16.48
2023-02-23T02:52:55.943Z,14.43
2023-02-23T02:53:09.886Z,13.50
2023-02-23T02:53:29.526Z,12.45
2023-02-23T02:53:51.277Z,14.40
2023-02-23T02:54:17.839Z,13.90
2023-02-23T02:54:37.049Z,14.98
2023-02-23T02:54:56.515Z,15.60
2023-02-23T02:55:23.910Z,15.57
2023-02-23T02:55:38.531Z,12.63
2023-02-23T02:55:51.324Z,12.98
2023-02-23T02:56:05.630Z,13.55
2023-02-23T02:56:19.948Z,13.23
2023-02-23T02:56:40.333Z,13.90
2023-02-23T02:56:57.666Z,12.82
2023-02-23T02:57:10.824Z,12.70
2023-02-23T02:57:25.476Z,13.80
2023-02-23T02:57:38.307Z,15.48
2023-02-23T02:57:52.025Z,15.45
2023-02-23T02:58:07.898Z,14.40
2023-02-23T02:58:20.722Z,13.48
2023-02-23T02:58:33.828Z,14.27
2023-02-23T02:58:47.094Z,13.93
2023-02-23T02:59:01.493Z,14.70
2023-02-23T02:59:51.551Z,14.70
2023-02-23T03:00:23.566Z,15.30
2023-02-23T03:00:59.679Z,14.50
2023-02-23T03:01:33.051Z,14.93
2023-02-23T03:02:04.563Z,14.73
2023-02-23T03:02:39.902Z,11.88
2023-02-23T03:03:11.138Z,13.70
2023-02-23T03:03:51.774Z,14.40
2023-02-23T03:04:44.157Z,13.82
2023-02-23T03:05:15.520Z,14.70
2023-02-23T03:05:59.480Z,14.50
2023-02-23T03:06:30.951Z,13.43
2023-02-23T03:07:10.024Z,13.10
2023-02-23T03:07:59.709Z,14.05
2023-02-23T03:08:54.003Z,12.23
2023-02-23T03:09:37.220Z,13.27
2023-02-23T03:10:21.391Z,14.73
2023-02-23T03:10:54.143Z,14.23
2023-02-23T03:11:29.813Z,15.93
2023-02-23T03:12:07.339Z,13.95
2023-02-23T03:12:57.882Z,14.00
2023-02-23T03:13:41.623Z,13.75
2023-02-23T03:14:27.139Z,13.38
2023-02-23T03:15:13.364Z,12.30
2023-02-23T03:16:24.042Z,13.48
2023-02-23T03:17:13.541Z,13.32
2023-02-23T03:18:06.549Z,13.07
2023-02-23T03:19:13.716Z,13.27
2023-02-23T03:19:46.394Z,14.32
2023-02-23T03:20:22.758Z,13.60
2023-02-23T03:21:02.708Z,12.27
2023-02-23T03:21:36.546Z,14.40
2023-02-23T03:22:12.433Z,12.30
2023-02-23T03:23:17.578Z,13.02
2023-02-23T03:24:07.776Z,13.52
2023-02-23T03:24:59.680Z,13.88
2023-02-23T03:25:35.831Z,12.02
2023-02-23T03:26:13.287Z,12.43
2023-02-23T03:26:53.315Z,14.55
2023-02-23T03:27:31.026Z,14.27
2023-02-23T03:28:08.307Z,13.88
2023-02-23T03:28:49.721Z,14.57
2023-02-23T03:29:50.041Z,12.70
2023-02-23T03:30:37.609Z,13.20
2023-02-23T03:31:23.930Z,13.90
2023-02-23T03:32:20.799Z,16.05
2023-02-23T03:32:55.122Z,12.95
2023-02-23T03:33:31.084Z,14.57
2023-02-23T03:34:19.127Z,12.85
2023-02-23T03:34:57.433Z,12.40
2023-02-23T03:35:40.219Z,13.15
2023-02-23T03:36:20.633Z,13.57
2023-02-23T03:36:52.583Z,13.90
2023-02-23T03:37:31.662Z,13.35
2023-02-23T03:38:09.650Z,14.90
2023-02-23T03:38:47.107Z,13.75
2023-02-23T03:39:23.333Z,12.27
2023-02-23T03:40:02.248Z,13.40
2023-02-23T03:40:40.506Z,11.70
2023-02-23T03:41:11.885Z,12.73
2023-02-23T03:41:43.620Z,14.40
2023-02-23T03:42:15.506Z,12.85
2023-02-23T03:42:48.820Z,12.50
2023-02-23T03:43:39.177Z,13.35
2023-02-23T03:44:22.140Z,13.30
2023-02-23T03:44:56.951Z,14.35
2023-02-23T03:45:31.711Z,16.65
2023-02-23T03:46:03.611Z,13.80
2023-02-23T03:46:35.037Z,13.20
2023-02-23T03:47:06.303Z,13.10
2023-02-23T03:47:38.147Z,12.27
2023-02-23T03:48:09.929Z,14.13
2023-02-23T03:48:41.655Z,13.75
2023-02-23T03:49:13.527Z,13.80
2023-02-23T03:49:46.426Z,12.25
2023-02-23T03:50:18.760Z,13.48
2023-02-23T03:50:54.125Z,12.52
2023-02-23T03:51:26.678Z,14.27
2023-02-23T03:51:59.252Z,12.55
2023-02-23T03:52:39.160Z,13.75
2023-02-23T03:53:15.947Z,12.35
2023-02-23T03:54:02.867Z,14.18
2023-02-23T03:54:37.352Z,13.70
2023-02-23T03:55:18.830Z,13.38
2023-02-23T03:55:52.756Z,12.45
2023-02-23T03:56:24.902Z,14.48
2023-02-23T03:56:58.314Z,13.93
2023-02-23T03:57:30.227Z,13.27
2023-02-23T03:58:02.243Z,12.52
2023-02-23T03:58:36.025Z,12.98
2023-02-23T03:59:10.908Z,14.20
2023-02-23T03:59:44.682Z,14.70
2023-02-23T04:00:17.050Z,13.85
2023-02-23T04:00:53.400Z,13.25
2023-02-23T04:01:24.840Z,12.07
2023-02-23T04:01:56.308Z,12.55
2023-02-23T04:02:28.132Z,12.45
2023-02-23T04:03:00.328Z,12.70
2023-02-23T04:03:31.861Z,11.63
2023-02-23T04:04:03.676Z,12.57
2023-02-23T04:04:35.278Z,13.48
2023-02-23T04:05:06.539Z,13.40
2023-02-23T04:05:37.826Z,12.98
2023-02-23T04:06:09.161Z,13.18
2023-02-23T04:06:42.014Z,12.32
2023-02-23T04:07:14.851Z,13.68
2023-02-23T04:07:46.412Z,13.62
2023-02-23T04:08:17.748Z,14.32
2023-02-23T04:08:52.468Z,12.70
2023-02-23T04:09:24.969Z,13.68
2023-02-23T04:09:56.490Z,12.35
2023-02-23T04:10:28.383Z,14.50
2023-02-23T04:11:05.505Z,13.50
2023-02-23T04:12:04.700Z,14.20
2023-02-23T04:12:51.738Z,11.68
2023-02-23T04:13:16.903Z,13.95
2023-02-23T04:13:29.688Z,13.27
2023-02-23T04:13:42.469Z,13.50
2023-02-23T04:13:55.629Z,13.05
2023-02-23T04:14:10.798Z,12.65
2023-02-23T04:14:29.742Z,13.15
2023-02-23T04:14:45.944Z,15.82
2023-02-23T04:15:20.577Z,15.52
2023-02-23T04:15:34.787Z,12.98
2023-02-23T04:15:59.773Z,12.73
2023-02-23T04:16:12.550Z,12.73
2023-02-23T04:16:25.388Z,12.95
2023-02-23T04:16:38.213Z,13.82
2023-02-23T04:16:51.081Z,15.48
2023-02-23T04:17:14.996Z,14.68
2023-02-23T04:17:28.849Z,14.75
2023-02-23T04:17:41.648Z,14.24
2023-02-23T04:17:54.592Z,13.35
2023-02-23T04:18:08.477Z,13.05
2023-02-23T04:18:27.952Z,13.48
2023-02-23T04:18:40.782Z,14.63
2023-02-23T04:18:53.581Z,13.73
2023-02-23T04:19:06.378Z,13.70
2023-02-23T04:19:19.183Z,13.82
2023-02-23T04:19:31.980Z,14.18
2023-02-23T04:19:51.928Z,14.43
2023-02-23T04:20:07.049Z,15.02
2023-02-23T04:20:19.929Z,13.60
2023-02-23T04:20:32.796Z,13.38
2023-02-23T04:20:45.701Z,13.95
2023-02-23T04:20:58.662Z,14.38
2023-02-23T04:21:11.560Z,13.38
2023-02-23T04:21:24.408Z,12.75
2023-02-23T04:21:37.247Z,12.23
2023-02-23T04:21:50.099Z,14.27
2023-02-23T04:22:02.915Z,15.88
2023-02-23T04:22:15.717Z,14.35
2023-02-23T04:22:28.568Z,12.88
2023-02-23T04:22:41.406Z,13.02
2023-02-23T04:22:54.232Z,14.13
2023-02-23T04:23:07.074Z,13.55
2023-02-23T04:23:19.912Z,13.13
2023-02-23T04:23:32.801Z,12.73
2023-02-23T04:23:45.652Z,12.65
2023-02-23T04:23:58.434Z,13.23
2023-02-23T04:24:11.268Z,13.25
2023-02-23T04:24:24.106Z,12.75
2023-02-23T04:24:37.507Z,12.23
2023-02-23T04:24:50.870Z,12.30
2023-02-23T04:25:23.022Z,13.27
2023-02-23T04:25:35.832Z,13.95
2023-02-23T04:25:49.633Z,13.10
2023-02-23T04:26:02.439Z,13.35